Time;durP1;ratioP1;P1;durP2;ratioP2;P2;SDS_P1;SDS_P2;PMS_P1;PMS_P2;Temp;Humidity;BMP_temperature;BMP_pressure;BME280_temperature;BME280_humidity;BME280_pressure;Samples;Min_cycle;Max_cycle;Signal;HPM_P1;HPM_P2
2022/04/21 00:02:01;;;;;;;9.30;6.80;;;8.30;97.40;;;;;;2133020;67;20231;-73
2022/04/21 00:04:46;;;;;;;12.10;7.60;;;8.30;97.60;;;;;;2132537;67;20300;-73
2022/04/21 00:07:28;;;;;;;10.02;6.95;;;8.20;97.80;;;;;;2118724;67;20597;-73
2022/04/21 00:10:10;;;;;;;10.80;8.02;;;8.20;98.00;;;;;;2126032;67;20168;-73
2022/04/21 00:12:54;;;;;;;10.63;7.70;;;8.20;98.20;;;;;;2125877;67;20164;-73
2022/04/21 00:15:38;;;;;;;11.48;7.63;;;8.20;98.60;;;;;;2132838;67;20380;-74
2022/04/21 00:18:22;;;;;;;9.98;7.80;;;8.20;98.80;;;;;;2133132;67;20262;-74
2022/04/21 00:21:05;;;;;;;12.43;8.10;;;8.20;99.10;;;;;;2139720;67;20821;-74
2022/04/21 00:23:50;;;;;;;10.60;7.93;;;8.10;99.50;;;;;;2124758;67;20177;-74
2022/04/21 00:26:31;;;;;;;11.38;7.95;;;8.10;99.50;;;;;;2125379;67;20180;-74
2022/04/21 00:29:13;;;;;;;12.98;8.13;;;8.10;99.80;;;;;;2132990;67;20195;-73
2022/04/21 00:31:59;;;;;;;13.85;8.40;;;8.20;99.90;;;;;;2134751;67;20624;-73
2022/04/21 00:34:42;;;;;;;12.00;7.90;;;8.10;99.90;;;;;;2123674;67;20672;-73
2022/04/21 00:37:26;;;;;;;12.90;8.57;;;8.10;99.90;;;;;;2125730;67;20725;-74
2022/04/21 00:40:10;;;;;;;11.50;8.75;;;8.00;99.90;;;;;;2147455;66;20710;-74
2022/04/21 00:42:54;;;;;;;11.40;8.27;;;8.00;99.90;;;;;;2154512;66;20197;-74
2022/04/21 00:45:39;;;;;;;11.40;8.23;;;8.00;99.90;;;;;;2155001;66;20371;-74
2022/04/21 00:48:21;;;;;;;13.90;8.55;;;8.00;99.90;;;;;;2140177;67;20194;-73
2022/04/21 00:51:03;;;;;;;12.18;8.68;;;8.00;99.90;;;;;;2148360;66;20797;-74
2022/04/21 00:53:45;;;;;;;14.30;9.20;;;8.00;99.90;;;;;;2134687;67;20197;-74
2022/04/21 00:56:29;;;;;;;10.82;8.13;;;8.00;99.90;;;;;;2128501;66;20823;-74
2022/04/21 00:59:12;;;;;;;10.98;8.95;;;8.00;99.90;;;;;;2127099;67;20862;-74
2022/04/21 01:04:54;;;;;;;10.93;8.40;;;8.00;99.90;;;;;;2122132;67;20417;-73
2022/04/21 01:07:40;;;;;;;14.07;10.20;;;8.00;99.90;;;;;;2140122;67;20334;-73
2022/04/21 01:10:25;;;;;;;13.15;10.05;;;8.00;99.90;;;;;;2128186;67;20608;-74
2022/04/21 01:13:07;;;;;;;13.23;9.27;;;8.00;99.90;;;;;;2131292;67;20184;-72
2022/04/21 01:15:50;;;;;;;13.48;9.77;;;8.00;99.90;;;;;;2117982;67;20185;-72
2022/04/21 01:18:32;;;;;;;12.15;8.88;;;7.90;99.90;;;;;;2112368;67;20657;-73
2022/04/21 01:21:16;;;;;;;14.80;9.55;;;7.90;99.90;;;;;;2133800;67;20172;-73
2022/04/21 01:24:01;;;;;;;12.77;9.65;;;7.90;99.90;;;;;;2132813;67;20776;-72
2022/04/21 01:26:43;;;;;;;15.10;10.43;;;7.90;99.90;;;;;;2160167;66;20366;-73
2022/04/21 01:29:27;;;;;;;13.98;9.98;;;7.80;99.90;;;;;;2169400;66;20233;-72
2022/04/21 01:32:12;;;;;;;14.98;10.02;;;8.00;99.90;;;;;;2158973;66;20232;-72
2022/04/21 01:34:54;;;;;;;13.85;10.10;;;7.70;99.90;;;;;;2148074;66;20178;-72
2022/04/21 01:43:41;;;;;;;16.13;11.88;;;7.60;99.90;;;;;;2145766;66;20175;-73
2022/04/21 01:46:24;;;;;;;15.05;11.18;;;7.50;99.90;;;;;;2140530;66;20179;-74
2022/04/21 01:49:07;;;;;;;13.63;10.52;;;7.50;99.90;;;;;;2144806;66;20416;-74
2022/04/21 01:51:52;;;;;;;15.82;11.82;;;7.50;99.90;;;;;;2139931;66;20266;-73
2022/04/21 01:54:34;;;;;;;16.92;11.90;;;7.50;99.90;;;;;;2132590;67;20179;-72
2022/04/21 01:57:15;;;;;;;15.25;11.00;;;7.40;99.90;;;;;;2147068;66;20802;-72
2022/04/21 01:59:57;;;;;;;16.02;11.48;;;7.40;99.90;;;;;;2135877;67;20344;-72
2022/04/21 02:02:39;;;;;;;17.00;10.82;;;7.40;99.90;;;;;;2120600;67;20204;-73
2022/04/21 02:05:24;;;;;;;16.73;10.75;;;7.40;99.90;;;;;;2141095;66;20340;-73
2022/04/21 02:08:07;;;;;;;17.38;11.20;;;7.40;99.90;;;;;;2138009;66;20235;-74
2022/04/21 02:10:48;;;;;;;14.05;10.20;;;7.40;99.90;;;;;;2144945;66;20178;-74
2022/04/21 02:13:35;;;;;;;13.68;10.82;;;7.40;99.90;;;;;;2146028;66;20762;-73
2022/04/21 02:16:21;;;;;;;15.77;11.70;;;7.40;99.90;;;;;;2132009;67;20213;-74
2022/04/21 02:19:05;;;;;;;15.63;11.43;;;7.40;99.90;;;;;;2126410;67;20250;-73
2022/04/21 02:21:52;;;;;;;17.02;11.68;;;7.40;99.90;;;;;;2125063;67;20247;-71
2022/04/21 02:24:36;;;;;;;;;;;7.40;99.90;;;;;;2119421;67;20221;-73
2022/04/21 02:27:19;;;;;;;16.75;11.90;;;7.40;99.90;;;;;;2118648;67;20080;-72
2022/04/21 02:30:00;;;;;;;16.08;10.52;;;7.30;99.90;;;;;;2110375;67;20725;-74
2022/04/21 02:32:42;;;;;;;16.17;11.48;;;7.30;99.90;;;;;;2111931;67;20695;-73
2022/04/21 02:35:24;;;;;;;16.27;10.88;;;7.30;99.90;;;;;;2118034;67;20966;-73
2022/04/21 02:38:06;;;;;;;13.88;10.50;;;7.30;99.90;;;;;;2118806;67;20602;-73
2022/04/21 02:40:49;;;;;;;13.85;9.77;;;7.20;99.90;;;;;;2131365;67;20196;-73
2022/04/21 02:43:34;;;;;;;13.97;9.77;;;7.20;99.90;;;;;;2125354;67;20219;-73
2022/04/21 02:46:27;;;;;;;14.10;9.52;;;7.20;99.90;;;;;;2128035;67;20342;-73
2022/04/21 02:49:09;;;;;;;13.13;10.07;;;7.20;99.90;;;;;;2110055;67;20579;-73
2022/04/21 02:51:51;;;;;;;13.88;9.65;;;7.20;99.90;;;;;;2115088;67;20319;-74
2022/04/21 02:57:33;;;;;;;14.48;8.90;;;7.20;99.90;;;;;;2119934;67;20319;-73
2022/04/21 03:00:16;;;;;;;11.57;9.07;;;7.20;99.90;;;;;;2124288;67;20235;-72
2022/04/21 03:02:58;;;;;;;12.80;9.02;;;7.10;99.90;;;;;;2119953;67;20188;-72
2022/04/21 03:05:40;;;;;;;12.20;8.13;;;7.20;99.90;;;;;;2116006;67;20174;-73
2022/04/21 03:08:23;;;;;;;20.23;8.35;;;7.20;99.90;;;;;;2110303;67;20767;-72
2022/04/21 03:11:04;;;;;;;11.98;8.48;;;7.20;99.90;;;;;;2115472;67;20325;-73
2022/04/21 03:13:48;;;;;;;12.07;8.18;;;7.20;99.90;;;;;;2111884;67;20205;-73
2022/04/21 03:16:32;;;;;;;11.48;8.32;;;7.20;99.90;;;;;;2118690;67;20403;-73
2022/04/21 03:19:14;;;;;;;10.80;7.47;;;7.20;99.90;;;;;;2125429;67;20854;-72
2022/04/21 03:24:59;;;;;;;11.45;7.63;;;7.20;99.90;;;;;;2120450;67;20204;-73
2022/04/21 03:27:46;;;;;;;10.25;7.70;;;7.20;99.90;;;;;;2123360;67;20164;-73
2022/04/21 03:30:30;;;;;;;9.70;7.72;;;7.20;99.90;;;;;;2118206;67;20281;-71
2022/04/21 03:33:11;;;;;;;10.30;7.50;;;7.10;99.90;;;;;;2111060;67;20278;-73
2022/04/21 03:35:53;;;;;;;10.70;7.07;;;7.20;99.90;;;;;;2118743;67;20219;-73
2022/04/21 03:38:38;;;;;;;11.65;7.75;;;7.10;99.90;;;;;;2122039;67;20373;-74
2022/04/21 03:41:21;;;;;;;9.35;7.78;;;7.20;99.90;;;;;;2123565;67;20210;-74
2022/04/21 03:44:04;;;;;;;10.00;7.38;;;7.10;99.90;;;;;;2112048;67;20435;-73
2022/04/21 03:46:46;;;;;;;12.65;7.97;;;7.10;99.90;;;;;;2119081;67;20261;-74
2022/04/21 03:49:29;;;;;;;10.18;7.50;;;7.10;99.90;;;;;;2126555;67;20825;-73
2022/04/21 03:52:11;;;;;;;9.40;7.20;;;7.00;99.90;;;;;;2125213;67;20321;-72
2022/04/21 03:54:53;;;;;;;11.13;7.65;;;7.00;99.90;;;;;;2117809;67;20280;-72
2022/04/21 03:57:35;;;;;;;12.13;7.88;;;7.00;99.90;;;;;;2139175;66;20196;-74
2022/04/21 04:00:20;;;;;;;12.77;8.15;;;6.90;99.90;;;;;;2139089;67;20458;-73
2022/04/21 04:03:04;;;;;;;10.90;7.32;;;6.90;99.90;;;;;;2131905;67;20175;-73
2022/04/21 04:05:50;;;;;;;14.25;7.70;;;6.90;99.90;;;;;;2138471;66;20630;-74
2022/04/21 04:11:35;;;;;;;9.32;7.35;;;6.90;99.90;;;;;;2111745;67;20678;-73
2022/04/21 04:14:16;;;;;;;11.48;7.47;;;6.90;99.90;;;;;;2118807;67;20318;-74
2022/04/21 04:16:58;;;;;;;10.73;8.30;;;6.90;99.90;;;;;;2125252;67;20197;-73
2022/04/21 04:19:41;;;;;;;10.45;7.85;;;6.80;99.90;;;;;;2127148;67;20199;-73
2022/04/21 04:22:25;;;;;;;11.63;8.35;;;7.00;99.90;;;;;;2129834;67;20239;-73
2022/04/21 04:25:11;;;;;;;10.60;7.40;;;6.80;99.90;;;;;;2125096;67;20453;-74
2022/04/21 04:27:56;;;;;;;13.13;8.20;;;6.70;99.90;;;;;;2117718;67;20188;-73
2022/04/21 04:30:38;;;;;;;10.93;7.70;;;6.70;99.90;;;;;;2130626;67;20352;-72
2022/04/21 04:33:24;;;;;;;12.82;8.50;;;6.70;99.90;;;;;;2124775;67;20325;-73
2022/04/21 04:36:07;;;;;;;13.10;9.05;;;6.70;99.90;;;;;;2130383;67;20184;-72
2022/04/21 04:38:49;;;;;;;11.30;8.73;;;6.70;99.90;;;;;;2140814;66;20339;-73
2022/04/21 04:44:35;;;;;;;11.40;7.78;;;6.70;99.90;;;;;;2140193;66;20230;-73
2022/04/21 04:47:18;;;;;;;13.93;8.80;;;6.70;99.90;;;;;;2137871;67;20184;-72
2022/04/21 04:50:00;;;;;;;12.40;7.47;;;6.70;99.90;;;;;;2127112;67;20332;-74
2022/04/21 04:52:42;;;;;;;11.27;8.70;;;6.70;99.90;;;;;;2142129;66;20258;-72
2022/04/21 04:55:25;;;;;;;13.57;8.73;;;6.70;99.90;;;;;;2133703;67;20362;-72
2022/04/21 04:58:07;;;;;;;13.40;9.05;;;6.70;99.90;;;;;;2132936;67;20582;-74
2022/04/21 05:00:49;;;;;;;11.25;8.57;;;6.70;99.90;;;;;;2118215;67;20353;-73
2022/04/21 05:03:32;;;;;;;12.27;8.57;;;6.70;99.90;;;;;;2110907;67;20181;-74
2022/04/21 05:06:14;;;;;;;12.52;8.32;;;6.80;99.90;;;;;;2111763;67;20327;-73
2022/04/21 05:08:57;;;;;;;11.77;8.30;;;6.80;99.90;;;;;;2104882;67;20774;-73
2022/04/21 05:11:41;;;;;;;11.40;8.07;;;6.80;99.90;;;;;;2111400;67;20730;-73
2022/04/21 05:14:23;;;;;;;11.88;8.25;;;6.90;99.90;;;;;;2099275;68;20196;-72
2022/04/21 05:17:06;;;;;;;9.90;7.88;;;6.90;99.90;;;;;;2093983;68;20354;-72
2022/04/21 05:19:50;;;;;;;11.98;8.65;;;6.90;99.90;;;;;;2100755;68;20310;-72
2022/04/21 05:22:37;;;;;;;11.00;8.85;;;6.90;99.90;;;;;;2105580;68;20186;-72
2022/04/21 05:25:36;;;;;;;12.30;8.27;;;6.90;99.90;;;;;;2120093;67;20228;-73
2022/04/21 05:28:19;;;;;;;12.43;8.50;;;7.00;99.90;;;;;;2115916;67;20293;-72
2022/04/21 05:31:03;;;;;;;11.27;8.63;;;7.00;99.90;;;;;;2134643;67;20207;-71
2022/04/21 05:33:46;;;;;;;11.68;8.70;;;7.00;99.90;;;;;;2141207;66;20428;-74
2022/04/21 05:36:29;;;;;;;9.93;8.38;;;7.00;99.90;;;;;;2140614;66;20222;-74
2022/04/21 05:39:11;;;;;;;12.38;8.70;;;7.10;99.90;;;;;;2152439;66;20187;-72
2022/04/21 05:41:55;;;;;;;11.07;8.32;;;7.10;99.90;;;;;;2139273;66;20783;-73
2022/04/21 05:44:38;;;;;;;12.68;8.38;;;7.10;99.90;;;;;;2146177;66;20387;-72
2022/04/21 05:47:22;;;;;;;11.15;8.20;;;7.10;99.90;;;;;;2140291;67;20200;-73
2022/04/21 05:50:07;;;;;;;10.00;8.45;;;7.10;99.90;;;;;;2137096;66;20732;-73
2022/04/21 05:52:52;;;;;;;14.27;9.45;;;7.20;99.90;;;;;;2154730;66;20277;-72
2022/04/21 05:55:36;;;;;;;13.13;9.75;;;7.20;99.90;;;;;;2139271;66;20355;-74
2022/04/21 05:58:18;;;;;;;12.25;9.88;;;7.30;99.90;;;;;;2145987;66;20394;-73
2022/04/21 06:01:02;;;;;;;13.35;9.43;;;7.40;99.90;;;;;;2126933;67;20624;-73
2022/04/21 06:03:48;;;;;;;17.10;10.13;;;7.60;99.90;;;;;;2141653;66;20269;-73
2022/04/21 06:06:32;;;;;;;12.80;8.82;;;7.50;99.90;;;;;;2146994;66;20749;-74
2022/04/21 06:09:17;;;;;;;10.73;8.47;;;7.60;99.90;;;;;;2140818;66;20265;-73
2022/04/21 06:11:59;;;;;;;12.55;8.13;;;7.70;99.90;;;;;;2148042;66;20328;-75
2022/04/21 06:14:41;;;;;;;12.43;8.05;;;7.80;99.90;;;;;;2138552;67;20262;-73
2022/04/21 06:17:24;;;;;;;12.32;7.47;;;7.90;99.90;;;;;;2139181;67;20320;-73
2022/04/21 06:20:10;;;;;;;10.68;6.63;;;8.00;99.90;;;;;;2125664;67;20329;-74
2022/04/21 06:22:52;;;;;;;22.30;9.35;;;8.10;99.90;;;;;;2133103;67;20798;-74
2022/04/21 06:25:38;;;;;;;14.00;7.38;;;8.20;99.90;;;;;;2132611;67;20841;-73
2022/04/21 06:28:20;;;;;;;9.15;6.78;;;8.30;99.90;;;;;;2133459;67;20234;-74
2022/04/21 06:31:02;;;;;;;6.95;5.78;;;8.40;99.90;;;;;;2133159;67;20242;-73
2022/04/21 06:33:45;;;;;;;10.20;5.97;;;8.50;99.90;;;;;;2140585;67;20341;-74
2022/04/21 06:36:29;;;;;;;9.77;6.10;;;8.60;99.90;;;;;;2130812;67;20423;-73
2022/04/21 06:39:11;;;;;;;8.30;6.18;;;8.70;99.90;;;;;;2152318;66;20270;-73
2022/04/21 06:41:54;;;;;;;8.63;6.68;;;8.80;99.90;;;;;;2156449;66;20181;-72
2022/04/21 06:50:41;;;;;;;8.70;6.65;;;9.10;99.90;;;;;;2163530;66;20757;-74
2022/04/21 06:53:29;;;;;;;9.40;6.55;;;9.20;99.90;;;;;;2161761;66;20180;-74
2022/04/21 06:56:15;;;;;;;8.38;5.40;;;9.30;99.90;;;;;;2154471;66;20301;-72
2022/04/21 06:58:57;;;;;;;8.60;5.72;;;9.30;99.90;;;;;;2160994;66;20289;-72
2022/04/21 07:01:41;;;;;;;11.15;8.15;;;9.40;99.90;;;;;;2163000;66;20169;-71
2022/04/21 07:04:23;;;;;;;13.20;8.73;;;9.50;99.90;;;;;;2163683;66;20240;-77
2022/04/21 07:07:05;;;;;;;8.63;6.82;;;9.30;99.90;;;;;;2138950;66;20344;-74
2022/04/21 07:09:47;;;;;;;11.23;8.30;;;9.10;99.90;;;;;;2127252;67;20350;-76
2022/04/21 07:12:33;;;;;;;9.40;7.18;;;8.80;99.90;;;;;;2139100;67;20178;-74
2022/04/21 07:15:15;;;;;;;7.53;6.20;;;8.60;99.90;;;;;;2138722;67;20613;-73
2022/04/21 07:17:59;;;;;;;14.85;6.28;;;8.50;99.90;;;;;;2140078;66;20201;-75
2022/04/21 07:20:42;;;;;;;9.30;6.72;;;8.40;99.90;;;;;;2144939;66;20199;-76
2022/04/21 07:23:24;;;;;;;7.50;6.22;;;8.40;99.90;;;;;;2145923;66;20260;-76
2022/04/21 07:26:06;;;;;;;9.13;7.22;;;8.40;99.90;;;;;;2132008;67;20167;-78
2022/04/21 07:28:49;;;;;;;7.53;4.60;;;8.50;99.90;;;;;;2131723;67;20224;-78
2022/04/21 07:31:32;;;;;;;7.18;5.70;;;8.50;99.90;;;;;;2131769;67;20789;-76
2022/04/21 07:34:16;;;;;;;;;;;8.60;99.90;;;;;;2127053;67;20203;-75
2022/04/21 07:37:00;;;;;;;8.60;5.50;;;8.70;99.90;;;;;;2124220;67;20524;-77
2022/04/21 07:39:44;;;;;;;;;;;8.80;99.90;;;;;;2146832;66;20198;-74
2022/04/21 07:42:28;;;;;;;9.23;4.97;;;8.90;99.90;;;;;;2141689;66;20051;-76
2022/04/21 07:45:10;;;;;;;6.78;4.50;;;9.10;99.90;;;;;;2147372;66;20193;-76
2022/04/21 07:47:52;;;;;;;6.18;4.05;;;9.20;99.90;;;;;;2146294;66;20361;-76
2022/04/21 07:50:36;;;;;;;5.18;3.78;;;9.40;99.90;;;;;;2153464;66;20197;-74
2022/04/21 07:53:22;;;;;;;7.35;4.07;;;9.50;99.90;;;;;;2153678;66;20230;-77
2022/04/21 07:56:09;;;;;;;4.00;3.08;;;9.70;99.90;;;;;;2153377;66;20295;-75
2022/04/21 07:58:51;;;;;;;4.40;2.63;;;9.80;99.90;;;;;;2160088;66;20201;-76
2022/04/21 08:01:34;;;;;;;4.80;2.67;;;10.00;99.90;;;;;;2146302;66;20967;-77
2022/04/21 08:04:19;;;;;;;4.07;2.58;;;10.30;99.90;;;;;;2139726;66;20277;-75
2022/04/21 08:07:01;;;;;;;3.53;2.10;;;10.30;99.90;;;;;;2139229;67;20253;-76
2022/04/21 08:09:43;;;;;;;2.15;1.88;;;10.50;99.90;;;;;;2121244;67;20251;-77
2022/04/21 08:12:25;;;;;;;3.08;2.20;;;10.60;99.90;;;;;;2117694;67;20259;-76
2022/04/21 08:15:31;;;;;;;2.40;2.20;;;10.80;99.90;;;;;;2112003;67;20170;-77
2022/04/21 08:18:13;;;;;;;2.55;2.30;;;10.90;99.90;;;;;;2104770;67;20293;-78
2022/04/21 08:20:58;;;;;;;4.95;2.33;;;11.00;99.90;;;;;;2101307;67;20374;-77
2022/04/21 08:23:44;;;;;;;4.00;2.25;;;11.20;99.30;;;;;;2111790;67;20322;-77
2022/04/21 08:32:43;;;;;;;3.22;2.20;;;11.60;97.30;;;;;;2125574;67;20246;-75
2022/04/21 08:35:26;;;;;;;6.45;2.35;;;11.70;96.50;;;;;;2131519;67;20180;-77
2022/04/21 08:38:11;;;;;;;5.72;3.47;;;11.80;96.10;;;;;;2118892;67;20422;-77
2022/04/21 08:40:58;;;;;;;4.07;2.63;;;11.90;95.10;;;;;;2138866;66;20166;-77
2022/04/21 08:43:47;;;;;;;2.60;2.20;;;12.00;94.20;;;;;;2156515;66;20346;-77
2022/04/21 08:46:32;;;;;;;3.08;2.05;;;12.20;93.50;;;;;;2138125;67;21184;-77
2022/04/21 08:49:17;;;;;;;2.92;2.55;;;12.30;92.80;;;;;;2147135;66;20256;-77
2022/04/21 08:52:02;;;;;;;3.35;2.30;;;12.40;92.00;;;;;;2136755;66;20289;-79
2022/04/21 08:54:45;;;;;;;2.28;2.08;;;12.50;91.20;;;;;;2143313;66;20308;-77
2022/04/21 08:57:35;;;;;;;3.65;2.30;;;12.60;90.10;;;;;;2132711;67;20435;-76
2022/04/21 09:00:31;;;;;;;2.72;1.95;;;12.70;88.20;;;;;;2136012;67;20583;-76
2022/04/21 09:03:16;;;;;;;6.60;2.70;;;12.80;88.10;;;;;;2135753;67;20221;-76
2022/04/21 09:05:58;;;;;;;2.38;2.08;;;12.90;86.70;;;;;;2127424;67;20251;-77
2022/04/21 09:08:40;;;;;;;3.40;2.83;;;13.00;86.60;;;;;;2137403;67;20186;-76
2022/04/21 09:11:23;;;;;;;4.70;2.47;;;13.00;86.10;;;;;;2130661;67;20212;-76
2022/04/21 09:14:12;;;;;;;;;;;13.10;85.10;;;;;;2113454;67;20280;-77
2022/04/21 09:16:55;;;;;;;5.28;2.95;;;13.20;84.90;;;;;;2120847;67;20123;-76
2022/04/21 09:19:54;;;;;;;;;;;13.30;84.70;;;;;;2134263;67;20362;-77
2022/04/21 09:22:41;;;;;;;4.10;2.95;;;13.40;83.60;;;;;;2123204;67;20439;-75
2022/04/21 09:25:31;;;;;;;5.68;3.15;;;13.40;83.90;;;;;;2109273;67;20509;-76
2022/04/21 09:28:30;;;;;;;3.53;2.70;;;13.50;83.00;;;;;;2118101;67;20241;-75
2022/04/21 09:31:17;;;;;;;4.30;3.03;;;13.60;82.90;;;;;;2113665;67;20237;-76
2022/04/21 09:33:58;;;;;;;5.95;3.00;;;13.70;82.80;;;;;;2109991;67;20186;-75
2022/04/21 09:36:45;;;;;;;9.68;3.90;;;13.80;82.50;;;;;;2102517;68;20268;-73
2022/04/21 09:39:30;;;;;;;5.25;3.35;;;14.00;81.90;;;;;;2112252;67;20352;-75
2022/04/21 09:42:12;;;;;;;4.88;2.90;;;14.00;80.20;;;;;;2111732;67;20346;-77
2022/04/21 09:48:10;;;;;;;6.07;3.10;;;14.40;80.10;;;;;;2118468;67;20232;-76
2022/04/21 09:51:12;;;;;;;3.85;2.90;;;14.50;80.10;;;;;;2117372;67;20369;-75
2022/04/21 09:54:16;;;;;;;4.70;2.90;;;14.60;78.60;;;;;;2106024;67;20302;-74
2022/04/21 09:57:01;;;;;;;5.63;3.00;;;14.70;77.70;;;;;;2099162;68;20255;-73
2022/04/21 09:59:44;;;;;;;6.47;2.72;;;14.70;76.90;;;;;;2106586;67;20324;-74
2022/04/21 10:02:33;;;;;;;5.65;2.80;;;14.70;76.40;;;;;;2111078;67;20252;-74
2022/04/21 10:05:15;;;;;;;4.45;2.78;;;14.80;76.40;;;;;;2123710;67;20168;-73
2022/04/21 10:07:59;;;;;;;6.03;2.72;;;14.90;74.30;;;;;;2112780;67;20358;-74
2022/04/21 10:10:43;;;;;;;3.85;2.53;;;15.00;74.20;;;;;;2114787;67;20330;-75
2022/04/21 10:13:31;;;;;;;3.50;2.60;;;15.10;74.10;;;;;;2126837;67;20404;-76
2022/04/21 10:16:16;;;;;;;3.67;2.70;;;15.20;73.90;;;;;;2113791;67;20334;-73
2022/04/21 10:18:59;;;;;;;3.45;2.70;;;15.30;72.90;;;;;;2121266;67;20700;-75
2022/04/21 10:21:58;;;;;;;3.28;2.83;;;15.40;72.10;;;;;;2139939;66;20335;-76
2022/04/21 10:24:41;;;;;;;3.08;2.67;;;15.40;71.40;;;;;;2150120;66;20177;-75
2022/04/21 10:27:38;;;;;;;3.80;2.97;;;15.60;71.30;;;;;;2163716;66;20326;-75
2022/04/21 10:30:29;;;;;;;3.17;2.88;;;15.60;70.90;;;;;;2168430;66;20243;-75
2022/04/21 10:33:12;;;;;;;4.35;2.67;;;15.80;70.50;;;;;;2153503;66;20834;-77
2022/04/21 10:35:56;;;;;;;3.65;2.63;;;15.90;70.80;;;;;;2156138;66;20309;-77
2022/04/21 10:38:38;;;;;;;2.60;2.38;;;16.00;70.80;;;;;;2159133;66;20345;-76
2022/04/21 10:41:35;;;;;;;4.28;2.40;;;16.20;70.60;;;;;;2170906;65;20228;-75
2022/04/21 10:44:28;;;;;;;5.05;2.50;;;16.40;70.10;;;;;;2145191;66;20409;-76
2022/04/21 10:47:39;;;;;;;5.05;2.63;;;16.80;69.10;;;;;;2153770;66;20180;-74
2022/04/21 10:50:29;;;;;;;2.47;2.20;;;17.50;65.50;;;;;;2149133;66;20805;-75
2022/04/21 10:59:27;;;;;;;5.55;2.97;;;19.10;63.80;;;;;;2146995;66;20249;-77
2022/04/21 11:02:14;;;;;;;3.97;2.33;;;19.70;62.50;;;;;;2139136;67;20187;-78
2022/04/21 11:04:58;;;;;;;4.75;2.20;;;20.10;61.20;;;;;;2146559;66;20789;-79
2022/04/21 11:07:56;;;;;;;2.97;2.00;;;20.40;59.10;;;;;;2142971;67;20406;-82
2022/04/21 11:10:45;;;;;;;2.97;2.38;;;20.70;57.30;;;;;;2141138;66;20217;-81
2022/04/21 11:14:04;;;;;;;3.13;2.10;;;21.10;56.30;;;;;;2142687;67;20364;-80
2022/04/21 11:16:48;;;;;;;4.10;2.08;;;21.70;56.00;;;;;;2125910;67;20212;-80
2022/04/21 11:19:29;;;;;;;4.20;2.65;;;22.10;53.70;;;;;;2112869;67;20271;-80
2022/04/21 11:22:14;;;;;;;3.42;2.63;;;22.00;52.70;;;;;;2118482;67;20302;-79
2022/04/21 11:24:55;;;;;;;5.57;2.33;;;22.10;52.50;;;;;;2118693;67;20210;-80
2022/04/21 11:27:42;;;;;;;2.75;1.98;;;22.60;52.00;;;;;;2115421;67;20186;-78
2022/04/21 11:30:25;;;;;;;3.40;2.55;;;22.60;49.90;;;;;;2130363;67;20924;-82
2022/04/21 11:33:10;;;;;;;3.35;2.72;;;23.00;49.70;;;;;;2131198;67;20178;-74
2022/04/21 11:36:06;;;;;;;2.25;2.05;;;23.60;47.90;;;;;;2118356;67;20325;-74
2022/04/21 11:38:52;;;;;;;2.83;2.20;;;24.00;47.60;;;;;;2130819;67;20190;-74
2022/04/21 11:41:44;;;;;;;5.40;2.83;;;23.80;48.00;;;;;;2128704;67;20408;-74
2022/04/21 11:44:29;;;;;;;2.80;2.60;;;24.40;47.80;;;;;;2107416;67;20348;-79
2022/04/21 11:47:21;;;;;;;7.40;2.40;;;25.20;47.20;;;;;;2119249;67;20294;-76
2022/04/21 11:50:13;;;;;;;2.28;2.08;;;26.10;45.80;;;;;;2138788;67;20723;-78
2022/04/21 11:53:11;;;;;;;3.53;2.65;;;26.70;44.20;;;;;;2136257;67;20270;-74
2022/04/21 11:55:55;;;;;;;3.40;2.28;;;27.30;43.30;;;;;;2136945;67;20318;-77
2022/04/21 11:58:41;;;;;;;3.50;2.70;;;28.00;43.00;;;;;;2133388;66;20343;-75
2022/04/21 12:07:25;;;;;;;2.35;2.13;;;29.10;40.90;;;;;;2123207;67;20340;-79
2022/04/21 12:10:09;;;;;;;3.55;2.80;;;29.10;39.90;;;;;;2122586;67;20607;-77
2022/04/21 12:12:51;;;;;;;4.13;2.90;;;28.70;39.40;;;;;;2122504;67;20877;-77
2022/04/21 12:15:39;;;;;;;2.90;2.70;;;29.00;39.80;;;;;;2125242;67;20300;-77
2022/04/21 12:18:25;;;;;;;2.40;2.20;;;29.40;39.20;;;;;;2128948;67;20308;-77
2022/04/21 12:21:10;;;;;;;3.10;2.55;;;29.70;38.50;;;;;;2125412;67;20337;-76
2022/04/21 12:23:54;;;;;;;5.40;2.50;;;30.10;38.00;;;;;;2119680;67;20361;-75
2022/04/21 12:26:38;;;;;;;3.95;2.55;;;30.00;37.40;;;;;;2109340;67;20209;-75
2022/04/21 12:29:22;;;;;;;3.25;2.95;;;29.80;37.30;;;;;;2104390;68;20194;-76
2022/04/21 12:32:05;;;;;;;7.47;2.97;;;29.50;37.60;;;;;;2113227;67;20454;-77
2022/04/21 12:34:48;;;;;;;4.78;2.80;;;29.80;37.50;;;;;;2116947;67;20568;-76
2022/04/21 12:37:35;;;;;;;4.07;2.78;;;30.20;37.00;;;;;;2132775;67;20191;-76
2022/04/21 12:40:18;;;;;;;4.05;2.65;;;30.50;36.30;;;;;;2125186;67;20322;-78
2022/04/21 12:43:02;;;;;;;4.03;3.00;;;30.10;36.40;;;;;;2124705;67;20269;-76
2022/04/21 12:45:46;;;;;;;3.50;2.85;;;30.00;36.70;;;;;;2130027;67;20196;-79
2022/04/21 12:48:30;;;;;;;2.90;2.65;;;30.10;36.90;;;;;;2119238;67;20690;-77
2022/04/21 12:51:22;;;;;;;3.58;3.20;;;30.70;36.60;;;;;;2123639;67;20192;-78
2022/04/21 12:54:06;;;;;;;5.55;3.10;;;31.30;36.20;;;;;;2143507;66;21287;-77
2022/04/21 12:56:54;;;;;;;4.88;3.10;;;31.80;35.50;;;;;;2161040;66;20283;-76
2022/04/21 12:59:37;;;;;;;4.38;2.28;;;32.40;35.40;;;;;;2147858;66;20438;-75
2022/04/21 13:02:21;;;;;;;3.63;2.85;;;33.00;35.10;;;;;;2155238;66;20221;-77
2022/04/21 13:05:03;;;;;;;5.38;3.40;;;33.50;34.90;;;;;;2142766;66;20202;-78
2022/04/21 13:07:46;;;;;;;3.70;2.88;;;33.70;34.50;;;;;;2138848;67;20423;-78
2022/04/21 13:10:32;;;;;;;3.53;3.22;;;33.70;34.40;;;;;;2138831;67;20246;-77
2022/04/21 13:13:18;;;;;;;4.20;3.25;;;33.70;34.10;;;;;;2138977;67;20277;-80
2022/04/21 13:16:00;;;;;;;4.40;3.30;;;33.80;34.00;;;;;;2146257;66;20654;-78
2022/04/21 13:18:42;;;;;;;4.85;3.80;;;33.90;33.50;;;;;;2154323;66;20174;-80
2022/04/21 13:24:28;;;;;;;3.53;3.22;;;33.80;33.60;;;;;;2141357;66;20273;-76
2022/04/21 13:27:10;;;;;;;3.85;3.05;;;33.20;33.50;;;;;;2134307;67;20696;-79
2022/04/21 13:29:54;;;;;;;3.92;3.30;;;33.00;33.80;;;;;;2126508;67;20303;-80
2022/04/21 13:35:40;;;;;;;3.45;3.10;;;32.50;33.80;;;;;;2116393;67;20792;-77
2022/04/21 13:38:22;;;;;;;4.80;3.70;;;32.70;34.40;;;;;;2101757;68;20860;-81
2022/04/21 13:41:04;;;;;;;4.03;3.40;;;32.60;34.20;;;;;;2113405;67;20316;-81
2022/04/21 13:43:46;;;;;;;4.15;3.60;;;32.70;35.10;;;;;;2132363;67;20218;-81
2022/04/21 13:46:28;;;;;;;3.83;3.53;;;32.90;34.60;;;;;;2123817;67;20766;-80
2022/04/21 13:49:11;;;;;;;4.70;3.75;;;33.50;34.10;;;;;;2124106;67;20296;-78
2022/04/21 13:51:57;;;;;;;6.60;3.83;;;34.00;33.60;;;;;;2134762;67;20224;-78
2022/04/21 13:54:42;;;;;;;7.13;3.38;;;34.00;33.30;;;;;;2139896;67;20244;-80
2022/04/21 13:57:26;;;;;;;4.00;3.60;;;33.40;33.60;;;;;;2147940;66;20276;-79
2022/04/21 14:00:12;;;;;;;3.92;3.60;;;33.10;33.90;;;;;;2155251;66;20180;-78
2022/04/21 14:02:54;;;;;;;4.70;4.05;;;33.30;33.80;;;;;;2166955;66;20172;-77
2022/04/21 14:05:37;;;;;;;5.07;3.67;;;33.50;34.20;;;;;;2163646;66;20177;-76
2022/04/21 14:08:21;;;;;;;5.40;4.75;;;33.80;33.80;;;;;;2146885;66;20178;-76
2022/04/21 14:11:07;;;;;;;5.03;3.95;;;33.90;33.50;;;;;;2153483;66;20351;-78
2022/04/21 14:13:50;;;;;;;3.85;3.30;;;33.80;33.60;;;;;;2146245;66;20729;-77
2022/04/21 14:16:33;;;;;;;7.53;3.92;;;34.10;33.50;;;;;;2139664;66;20679;-76
2022/04/21 14:19:18;;;;;;;5.45;4.50;;;34.50;33.10;;;;;;2135532;67;20199;-81
2022/04/21 14:22:00;;;;;;;4.95;3.67;;;34.80;32.70;;;;;;2131164;67;20307;-79
2022/04/21 14:24:43;;;;;;;5.22;3.80;;;35.00;32.70;;;;;;2132512;67;20323;-80
2022/04/21 14:27:25;;;;;;;5.32;4.38;;;34.90;32.50;;;;;;2131968;67;20191;-79
2022/04/21 14:30:11;;;;;;;6.80;4.65;;;34.70;32.50;;;;;;2129764;67;20563;-82
2022/04/21 14:33:12;;;;;;;5.75;4.22;;;34.60;32.40;;;;;;2133823;67;20221;-80
2022/04/21 14:35:54;;;;;;;5.78;4.53;;;34.40;32.50;;;;;;2140579;67;20323;-81
2022/04/21 14:44:37;;;;;;;9.32;5.90;;;32.50;33.60;;;;;;2139841;67;20219;-79
2022/04/21 14:47:23;;;;;;;6.50;5.07;;;31.90;34.20;;;;;;2138165;67;20229;-79
2022/04/21 14:50:27;;;;;;;6.65;5.18;;;32.10;34.60;;;;;;2143996;66;20228;-79
2022/04/21 14:53:11;;;;;;;5.95;5.43;;;32.20;35.00;;;;;;2147516;66;20877;-79
2022/04/21 14:55:57;;;;;;;6.88;5.93;;;32.10;34.70;;;;;;2144365;66;20322;-79
2022/04/21 14:58:40;;;;;;;6.32;5.72;;;31.80;34.90;;;;;;2118652;67;20329;-79
2022/04/21 15:01:23;;;;;;;6.35;5.80;;;31.40;35.60;;;;;;2131026;67;20580;-77
2022/04/21 15:04:06;;;;;;;10.65;5.63;;;30.90;35.70;;;;;;2122439;67;20248;-78
2022/04/21 15:06:48;;;;;;;7.40;5.88;;;30.40;36.20;;;;;;2120966;67;20848;-77
2022/04/21 15:09:37;;;;;;;8.55;5.95;;;29.90;36.80;;;;;;2118108;67;20225;-82
2022/04/21 15:12:19;;;;;;;9.13;6.15;;;29.30;37.40;;;;;;2108737;67;20807;-79
2022/04/21 15:15:03;;;;;;;7.72;6.13;;;28.40;38.20;;;;;;2105602;68;20202;-80
2022/04/21 15:17:44;;;;;;;8.07;7.05;;;27.40;39.20;;;;;;2112589;67;20610;-79
2022/04/21 15:20:30;;;;;;;;;;;26.50;40.10;;;;;;2122007;67;20337;-79